createdAt,value
2018-02-11T00:02:06.163Z,35.05
2018-02-11T00:04:33.712Z,41.70
2018-02-11T00:07:01.210Z,37.92
2018-02-11T00:09:28.734Z,45.30
2018-02-11T00:11:56.242Z,43.22
2018-02-11T00:14:23.738Z,41.15
2018-02-11T00:16:51.255Z,50.28
2018-02-11T00:19:18.753Z,43.70
2018-02-11T00:21:46.390Z,45.90
2018-02-11T00:24:13.887Z,43.70
2018-02-11T00:26:41.436Z,38.05
2018-02-11T00:29:08.969Z,40.65
2018-02-11T00:31:36.479Z,39.13
2018-02-11T00:34:04.756Z,40.53
2018-02-11T00:36:32.326Z,44.72
2018-02-11T00:38:59.809Z,39.40
2018-02-11T00:41:27.321Z,41.40
2018-02-11T00:43:54.887Z,40.10
2018-02-11T00:46:23.164Z,39.22
2018-02-11T00:48:51.452Z,39.92
2018-02-11T00:51:19.727Z,41.20
2018-02-11T00:53:47.998Z,39.42
2018-02-11T00:56:16.274Z,41.40
2018-02-11T00:58:44.560Z,42.85
2018-02-11T01:01:12.849Z,43.70
2018-02-11T01:03:40.361Z,39.03
2018-02-11T01:06:07.869Z,39.20
2018-02-11T01:08:35.378Z,43.75
2018-02-11T01:11:02.931Z,40.60
2018-02-11T01:13:30.437Z,43.63
2018-02-11T01:15:58.733Z,36.80
2018-02-11T01:18:26.256Z,39.10
2018-02-11T01:20:54.530Z,33.30
2018-02-11T01:23:22.063Z,42.45
2018-02-11T01:25:49.768Z,33.47
2018-02-11T01:28:17.287Z,42.60
2018-02-11T01:30:44.787Z,31.52
2018-02-11T01:33:13.086Z,38.80
2018-02-11T01:35:40.606Z,34.97
2018-02-11T01:38:08.109Z,35.17
2018-02-11T01:40:35.627Z,38.78
2018-02-11T01:43:03.185Z,35.33
2018-02-11T01:45:30.687Z,43.78
2018-02-11T01:47:58.307Z,36.88
2018-02-11T01:50:25.821Z,41.15
2018-02-11T01:52:53.408Z,40.80
2018-02-11T01:55:20.924Z,38.17
2018-02-11T01:57:48.448Z,37.53
2018-02-11T02:00:16.747Z,40.90
2018-02-11T02:02:44.283Z,41.08
2018-02-11T02:05:11.799Z,38.38
2018-02-11T02:07:39.315Z,28.20
2018-02-11T02:10:07.586Z,33.08
2018-02-11T02:12:35.878Z,35.42
2018-02-11T02:15:04.153Z,34.33
2018-02-11T02:17:32.426Z,34.97
2018-02-11T02:20:00.706Z,34.13
2018-02-11T02:22:28.228Z,33.13
2018-02-11T02:24:55.728Z,36.63
2018-02-11T02:27:23.253Z,37.05
2018-02-11T02:29:50.757Z,32.90
2018-02-11T02:32:18.261Z,33.47
2018-02-11T02:34:45.763Z,37.33
2018-02-11T02:37:13.303Z,36.33
2018-02-11T02:39:41.683Z,32.15
2018-02-11T02:42:09.190Z,29.85
2018-02-11T02:44:36.708Z,35.70
2018-02-11T02:47:04.997Z,33.42
2018-02-11T02:49:32.525Z,20.85
2018-02-11T02:52:00.036Z,34.47
2018-02-11T02:54:27.559Z,35.72
2018-02-11T02:56:55.837Z,38.65
2018-02-11T02:59:24.171Z,38.78
2018-02-11T03:01:51.710Z,38.67
2018-02-11T03:04:19.231Z,39.15
2018-02-11T03:06:47.493Z,34.67
2018-02-11T03:09:15.021Z,39.05
2018-02-11T03:11:42.562Z,34.83
2018-02-11T03:14:10.069Z,40.05
2018-02-11T03:16:37.587Z,37.40
2018-02-11T03:19:05.087Z,36.30
2018-02-11T03:21:32.580Z,40.38
2018-02-11T03:24:00.101Z,38.85
2018-02-11T03:26:27.649Z,37.08
2018-02-11T03:28:55.183Z,35.65
2018-02-11T03:31:22.696Z,37.97
2018-02-11T03:33:50.202Z,37.85
2018-02-11T03:36:17.719Z,37.72
2018-02-11T03:38:45.244Z,42.47
2018-02-11T03:41:12.769Z,34.65
2018-02-11T03:43:40.287Z,35.38
2018-02-11T03:46:07.783Z,35.58
2018-02-11T03:48:35.311Z,32.40
2018-02-11T03:51:03.598Z,36.63
2018-02-11T03:53:31.884Z,37.53
2018-02-11T03:56:00.175Z,39.42
2018-02-11T03:58:27.712Z,35.85
2018-02-11T04:00:55.227Z,39.78
2018-02-11T04:03:22.746Z,37.35
2018-02-11T04:05:50.276Z,36.85
2018-02-11T04:08:17.789Z,37.40
2018-02-11T04:10:45.300Z,39.05
2018-02-11T04:13:13.580Z,38.13
2018-02-11T04:15:41.899Z,33.70
2018-02-11T04:18:09.399Z,38.35
2018-02-11T04:20:37.014Z,37.30
2018-02-11T04:23:04.570Z,37.92
2018-02-11T04:25:32.105Z,34.35
2018-02-11T04:28:00.396Z,37.45
2018-02-11T04:30:27.897Z,37.38
2018-02-11T04:32:55.410Z,35.28
2018-02-11T04:35:22.929Z,35.17
2018-02-11T04:37:50.495Z,35.35
2018-02-11T04:40:18.011Z,36.53
2018-02-11T04:42:45.531Z,36.53
2018-02-11T04:45:13.810Z,22.90
2018-02-11T04:47:42.096Z,34.78
2018-02-11T04:50:10.372Z,36.03
2018-02-11T04:52:38.654Z,35.00
2018-02-11T04:55:06.922Z,40.85
2018-02-11T04:57:35.215Z,34.05
2018-02-11T05:00:02.770Z,33.53
2018-02-11T05:02:30.288Z,31.90
2018-02-11T05:04:57.790Z,32.08
2018-02-11T05:07:25.351Z,37.40
2018-02-11T05:09:52.865Z,34.35
2018-02-11T05:12:20.394Z,32.15
2018-02-11T05:14:47.912Z,37.15
2018-02-11T05:17:15.443Z,33.70
2018-02-11T05:19:42.954Z,34.45
2018-02-11T05:22:10.462Z,34.38
2018-02-11T05:24:37.973Z,33.45
2018-02-11T05:27:05.560Z,36.17
2018-02-11T05:29:33.076Z,38.72
2018-02-11T05:32:00.589Z,36.03
2018-02-11T05:34:28.204Z,37.40
2018-02-11T05:36:55.699Z,29.40
2018-02-11T05:39:23.206Z,38.33
2018-02-11T05:41:51.492Z,32.63
2018-02-11T05:44:19.779Z,32.83
2018-02-11T05:46:47.282Z,34.08
2018-02-11T05:49:14.793Z,36.50
2018-02-11T05:51:42.307Z,34.88
2018-02-11T05:54:09.807Z,32.60
2018-02-11T05:56:38.081Z,35.53
2018-02-11T05:59:06.348Z,33.08
2018-02-11T06:01:34.624Z,33.70
2018-02-11T06:04:02.912Z,36.55
2018-02-11T06:06:31.198Z,36.58
2018-02-11T06:08:58.709Z,34.10
2018-02-11T06:11:26.315Z,34.35
2018-02-11T06:13:53.821Z,36.03
2018-02-11T06:16:21.338Z,33.22
2018-02-11T06:18:48.862Z,36.08
2018-02-11T06:21:16.370Z,28.20
2018-02-11T06:23:43.872Z,36.10
2018-02-11T06:26:11.398Z,33.20
2018-02-11T06:28:38.902Z,38.45
2018-02-11T06:31:06.431Z,35.55
2018-02-11T06:33:34.050Z,32.90
2018-02-11T06:36:01.568Z,35.22
2018-02-11T06:38:29.081Z,30.95
2018-02-11T06:40:56.593Z,27.33
2018-02-11T06:43:24.097Z,31.00
2018-02-11T06:45:51.635Z,31.62
2018-02-11T06:48:19.147Z,32.17
2018-02-11T06:50:46.679Z,36.83
2018-02-11T06:53:14.186Z,34.95
2018-02-11T06:55:41.695Z,35.03
2018-02-11T06:58:09.218Z,26.20
2018-02-11T07:00:36.743Z,29.83
2018-02-11T07:03:04.278Z,16.80
2018-02-11T07:05:31.825Z,33.10
2018-02-11T07:07:59.343Z,31.85
2018-02-11T07:10:26.903Z,31.95
2018-02-11T07:12:54.780Z,31.73
2018-02-11T07:15:22.318Z,28.00
2018-02-11T07:17:49.887Z,27.73
2018-02-11T07:20:17.515Z,33.00
2018-02-11T07:22:45.033Z,27.90
2018-02-11T07:25:13.316Z,26.12
2018-02-11T07:27:41.624Z,23.38
2018-02-11T07:30:09.139Z,25.27
2018-02-11T07:32:37.431Z,29.87
2018-02-11T07:35:04.952Z,24.70
2018-02-11T07:37:33.306Z,28.12
2018-02-11T07:40:00.804Z,27.90
2018-02-11T07:42:28.326Z,25.98
2018-02-11T07:44:55.821Z,23.87
2018-02-11T07:47:23.452Z,19.00
2018-02-11T07:49:50.986Z,20.10
2018-02-11T07:52:18.486Z,24.48
2018-02-11T07:54:45.999Z,24.20
2018-02-11T07:57:13.605Z,15.98
2018-02-11T07:59:41.118Z,15.27
2018-02-11T08:02:08.641Z,23.90
2018-02-11T08:04:36.171Z,20.80
2018-02-11T08:07:03.725Z,21.92
2018-02-11T08:09:31.253Z,18.83
2018-02-11T08:11:58.793Z,18.37
2018-02-11T08:14:26.334Z,16.95
2018-02-11T08:16:53.866Z,18.40
2018-02-11T08:19:21.374Z,16.83
2018-02-11T08:21:48.928Z,23.33
2018-02-11T08:24:16.454Z,15.52
2018-02-11T08:26:43.979Z,16.58
2018-02-11T08:29:11.494Z,18.15
2018-02-11T08:31:39.063Z,15.07
2018-02-11T08:34:06.630Z,18.20
2018-02-11T08:36:34.904Z,14.77
2018-02-11T08:39:02.447Z,16.37
2018-02-11T08:41:29.981Z,13.85
2018-02-11T08:43:57.484Z,14.10
2018-02-11T08:46:25.768Z,14.80
2018-02-11T08:48:54.047Z,16.87
2018-02-11T08:51:22.338Z,12.43
2018-02-11T08:53:49.866Z,13.85
2018-02-11T08:56:18.164Z,15.90
2018-02-11T08:58:45.685Z,15.38
2018-02-11T09:01:13.248Z,9.93
2018-02-11T09:03:40.802Z,14.63
2018-02-11T09:06:08.337Z,14.80
2018-02-11T09:08:35.876Z,18.00
2018-02-11T09:11:03.441Z,12.68
2018-02-11T09:13:31.135Z,12.35
2018-02-11T09:15:58.660Z,15.77
2018-02-11T09:18:26.196Z,15.65
2018-02-11T09:20:53.732Z,9.88
2018-02-11T09:23:21.245Z,14.02
2018-02-11T09:25:48.862Z,13.98
2018-02-11T09:28:16.367Z,14.52
2018-02-11T09:30:43.900Z,15.00
2018-02-11T09:33:12.252Z,17.33
2018-02-11T09:35:40.587Z,12.95
2018-02-11T09:38:09.253Z,11.57
2018-02-11T09:40:36.792Z,12.15
2018-02-11T09:43:04.330Z,13.60
2018-02-11T09:45:32.632Z,15.60
2018-02-11T09:48:00.951Z,11.35
2018-02-11T09:50:28.481Z,11.45
2018-02-11T09:52:55.987Z,9.63
2018-02-11T09:55:23.510Z,13.45
2018-02-11T09:57:51.038Z,15.90
2018-02-11T10:00:18.582Z,10.80
2018-02-11T10:02:46.167Z,15.23
2018-02-11T10:05:13.693Z,11.85
2018-02-11T10:07:41.203Z,14.02
2018-02-11T10:10:08.756Z,10.57
2018-02-11T10:12:36.362Z,11.07
2018-02-11T10:15:03.877Z,9.40
2018-02-11T10:17:31.417Z,12.30
2018-02-11T10:19:59.829Z,12.40
2018-02-11T10:22:27.374Z,10.45
2018-02-11T10:24:55.668Z,11.02
2018-02-11T10:27:23.192Z,10.13
2018-02-11T10:29:50.723Z,11.93
2018-02-11T10:32:18.305Z,8.35
2018-02-11T10:34:45.814Z,10.75
2018-02-11T10:37:13.380Z,7.43
2018-02-11T10:39:40.918Z,11.57
2018-02-11T10:42:08.441Z,8.00
2018-02-11T10:44:36.006Z,10.27
2018-02-11T10:47:03.602Z,10.05
2018-02-11T10:49:31.356Z,11.12
2018-02-11T10:51:59.019Z,11.27
2018-02-11T10:54:26.644Z,7.25
2018-02-11T10:56:54.163Z,10.07
2018-02-11T10:59:21.711Z,8.27
2018-02-11T11:01:49.238Z,10.25
2018-02-11T11:04:16.738Z,10.02
2018-02-11T11:06:44.245Z,9.95
2018-02-11T11:09:11.762Z,8.20
2018-02-11T11:11:39.326Z,11.23
2018-02-11T11:14:06.845Z,7.05
2018-02-11T11:16:35.183Z,11.18
2018-02-11T11:19:02.666Z,7.03
2018-02-11T11:21:30.158Z,6.28
2018-02-11T11:23:57.673Z,8.88
2018-02-11T11:26:25.167Z,7.75
2018-02-11T11:28:53.439Z,10.38
2018-02-11T11:31:21.727Z,9.27
2018-02-11T11:33:50.020Z,10.77
2018-02-11T11:36:17.547Z,12.30
2018-02-11T11:38:45.880Z,10.65
2018-02-11T11:41:13.385Z,10.90
2018-02-11T11:43:41.660Z,9.90
2018-02-11T11:46:09.962Z,9.85
2018-02-11T11:48:37.486Z,9.52
2018-02-11T11:51:05.023Z,10.20
2018-02-11T11:53:32.543Z,8.88
2018-02-11T11:56:00.058Z,10.25
2018-02-11T11:58:27.577Z,12.07
2018-02-11T12:00:55.114Z,9.50
2018-02-11T12:03:23.402Z,7.90
2018-02-11T12:05:50.939Z,7.90
2018-02-11T12:08:18.462Z,12.45
2018-02-11T12:10:45.971Z,7.53
2018-02-11T12:13:14.246Z,10.75
2018-02-11T12:15:41.768Z,9.68
2018-02-11T12:18:09.281Z,10.10
2018-02-11T12:20:36.793Z,9.93
2018-02-11T12:23:04.317Z,10.02
2018-02-11T12:25:32.680Z,10.32
2018-02-11T12:28:00.208Z,10.20
2018-02-11T12:30:28.537Z,7.55
2018-02-11T12:32:56.047Z,9.93
2018-02-11T12:35:23.550Z,10.15
2018-02-11T12:37:51.087Z,9.60
2018-02-11T12:40:18.666Z,8.38
2018-02-11T12:42:46.178Z,10.32
2018-02-11T12:45:14.468Z,8.55
2018-02-11T12:47:42.748Z,10.80
2018-02-11T12:50:11.039Z,10.90
2018-02-11T12:52:38.579Z,9.25
2018-02-11T12:55:06.191Z,10.05
2018-02-11T12:57:33.690Z,9.57
2018-02-11T13:00:01.216Z,11.43
2018-02-11T13:02:28.783Z,10.27
2018-02-11T13:04:56.365Z,8.15
2018-02-11T13:07:23.888Z,12.20
2018-02-11T13:09:51.409Z,6.65
2018-02-11T13:12:18.905Z,5.65
2018-02-11T13:14:46.406Z,11.63
2018-02-11T13:17:14.698Z,9.40
2018-02-11T13:19:42.972Z,11.85
2018-02-11T13:22:11.256Z,12.30
2018-02-11T13:24:39.542Z,10.43
2018-02-11T13:27:07.049Z,9.32
2018-02-11T13:29:34.587Z,12.57
2018-02-11T13:32:02.106Z,11.40
2018-02-11T13:34:30.398Z,13.05
2018-02-11T13:36:57.965Z,11.35
2018-02-11T13:39:28.062Z,11.65
2018-02-11T13:41:55.562Z,8.43
2018-02-11T13:44:23.080Z,10.65
2018-02-11T13:46:51.381Z,12.13
2018-02-11T13:49:18.905Z,9.10
2018-02-11T13:51:46.425Z,9.63
2018-02-11T13:54:13.965Z,12.25
2018-02-11T13:56:41.473Z,11.20
2018-02-11T13:59:09.019Z,13.07
2018-02-11T14:01:36.569Z,13.43
2018-02-11T14:04:04.097Z,11.93
2018-02-11T14:06:31.613Z,10.10
2018-02-11T14:08:59.134Z,12.25
2018-02-11T14:11:26.669Z,13.05
2018-02-11T14:13:54.223Z,12.52
2018-02-11T14:16:21.738Z,11.02
2018-02-11T14:18:50.795Z,11.77
2018-02-11T14:21:18.449Z,13.00
2018-02-11T14:23:45.942Z,11.07
2018-02-11T14:26:13.474Z,12.85
2018-02-11T14:28:40.992Z,14.95
2018-02-11T14:31:09.371Z,10.82
2018-02-11T14:33:36.891Z,12.82
2018-02-11T14:36:04.484Z,14.87
2018-02-11T14:52:29.146Z,21.37
2018-02-11T14:54:56.721Z,14.07
2018-02-11T14:57:24.231Z,10.85
2018-02-11T14:59:51.847Z,11.20
2018-02-11T15:02:19.379Z,11.77
2018-02-11T15:04:46.911Z,12.50
2018-02-11T15:07:14.435Z,9.90
2018-02-11T15:09:41.955Z,12.18
2018-02-11T15:12:09.494Z,10.13
2018-02-11T15:14:37.000Z,14.95
2018-02-11T15:17:04.508Z,13.82
2018-02-11T15:19:32.009Z,13.55
2018-02-11T15:21:59.534Z,11.98
2018-02-11T15:24:27.067Z,13.38
2018-02-11T15:26:55.354Z,14.00
2018-02-11T15:29:23.639Z,10.95
2018-02-11T15:31:51.155Z,13.65
2018-02-11T15:34:18.679Z,8.38
2018-02-11T15:36:46.197Z,14.43
2018-02-11T15:39:13.722Z,11.52
2018-02-11T15:41:41.252Z,13.68
2018-02-11T15:44:08.819Z,14.63
2018-02-11T15:46:36.349Z,14.95
2018-02-11T15:49:03.861Z,13.75
2018-02-11T15:51:31.386Z,11.15
2018-02-11T15:53:58.904Z,13.73
2018-02-11T15:56:26.426Z,9.07
2018-02-11T15:58:53.939Z,13.15
2018-02-11T16:01:22.246Z,9.98
2018-02-11T16:03:49.874Z,15.90
2018-02-11T16:06:18.178Z,13.68
2018-02-11T16:08:45.677Z,13.88
2018-02-11T16:11:13.200Z,7.95
2018-02-11T16:13:40.813Z,12.65
2018-02-11T16:16:08.330Z,11.80
2018-02-11T16:18:35.878Z,13.62
2018-02-11T16:21:03.427Z,10.50
2018-02-11T16:23:30.946Z,12.73
2018-02-11T16:25:58.473Z,11.10
2018-02-11T16:28:26.053Z,12.52
2018-02-11T16:30:53.577Z,8.45
2018-02-11T16:33:21.210Z,12.18
2018-02-11T16:35:48.838Z,12.60
2018-02-11T16:38:16.331Z,9.43
2018-02-11T16:40:44.608Z,13.48
2018-02-11T16:43:14.146Z,13.25
2018-02-11T16:45:41.653Z,11.73
2018-02-11T16:48:09.172Z,13.35
2018-02-11T16:50:36.710Z,12.43
2018-02-11T16:53:04.353Z,11.63
2018-02-11T16:55:32.658Z,11.70
2018-02-11T16:58:00.199Z,11.48
2018-02-11T17:00:27.736Z,11.77
2018-02-11T17:02:55.262Z,11.57
2018-02-11T17:05:22.771Z,8.05
2018-02-11T17:07:50.910Z,13.40
2018-02-11T17:10:18.443Z,11.85
2018-02-11T17:12:45.981Z,12.55
2018-02-11T17:15:13.588Z,12.70
2018-02-11T17:17:41.112Z,11.18
2018-02-11T17:20:08.678Z,10.57
2018-02-11T17:22:36.176Z,9.57
2018-02-11T17:25:03.689Z,9.23
2018-02-11T17:27:31.206Z,10.55
2018-02-11T17:29:58.756Z,11.93
2018-02-11T17:32:26.275Z,16.25
2018-02-11T17:34:54.052Z,8.48
2018-02-11T17:37:21.639Z,10.82
2018-02-11T17:39:49.187Z,9.23
2018-02-11T17:42:16.833Z,10.25
2018-02-11T17:44:44.375Z,10.27
2018-02-11T17:53:56.057Z,8.15
2018-02-11T17:56:23.675Z,9.27
2018-02-11T17:58:51.392Z,9.68
2018-02-11T18:01:18.918Z,12.90
2018-02-11T18:03:46.464Z,9.90
2018-02-11T18:06:14.050Z,10.98
2018-02-11T18:08:41.604Z,10.20
2018-02-11T18:11:09.143Z,9.80
2018-02-11T18:13:36.722Z,9.73
2018-02-11T18:16:04.248Z,9.85
2018-02-11T18:18:31.763Z,9.35
2018-02-11T18:20:59.296Z,10.27
2018-02-11T18:23:26.825Z,8.40
2018-02-11T18:25:54.374Z,9.60
2018-02-11T18:28:22.658Z,8.85
2018-02-11T18:30:50.982Z,9.13
2018-02-11T18:33:19.242Z,9.05
2018-02-11T18:35:46.832Z,8.80
2018-02-11T18:38:14.375Z,8.02
2018-02-11T18:40:41.943Z,8.55
2018-02-11T18:43:09.530Z,7.97
2018-02-11T18:45:37.058Z,7.40
2018-02-11T18:48:04.566Z,8.48
2018-02-11T18:50:32.867Z,9.00
2018-02-11T18:53:00.378Z,8.55
2018-02-11T18:55:28.357Z,7.47
2018-02-11T18:57:57.471Z,9.15
2018-02-11T19:00:25.787Z,8.45
2018-02-11T19:02:53.312Z,133.30
2018-02-11T19:05:20.835Z,11.15
2018-02-11T19:07:48.383Z,7.50
2018-02-11T19:10:15.936Z,7.18
2018-02-11T19:12:43.502Z,7.85
2018-02-11T19:15:11.217Z,9.52
2018-02-11T19:17:38.947Z,9.05
2018-02-11T19:20:06.584Z,12.35
2018-02-11T19:22:34.150Z,8.68
2018-02-11T19:25:01.718Z,8.50
2018-02-11T19:27:29.245Z,7.07
2018-02-11T19:29:56.777Z,7.93
2018-02-11T19:32:24.439Z,8.05
2018-02-11T19:34:52.008Z,6.90
2018-02-11T19:37:20.189Z,6.50
2018-02-11T19:39:49.293Z,8.23
2018-02-11T19:42:21.302Z,4.90
2018-02-11T19:44:51.938Z,6.70
2018-02-11T19:47:20.663Z,5.68
2018-02-11T19:49:50.643Z,7.80
2018-02-11T19:52:24.323Z,6.30
2018-02-11T19:54:54.198Z,8.52
2018-02-11T19:57:22.418Z,7.68
2018-02-11T19:59:50.377Z,7.28
2018-02-11T20:02:18.287Z,8.88
2018-02-11T20:22:05.148Z,6.90
2018-02-11T20:24:32.758Z,8.30
2018-02-11T20:27:00.326Z,6.50
2018-02-11T20:29:27.906Z,10.10
2018-02-11T20:31:55.523Z,8.68
2018-02-11T20:34:23.104Z,7.87
2018-02-11T20:36:50.762Z,7.80
2018-02-11T20:39:18.344Z,7.90
2018-02-11T20:41:45.928Z,8.32
2018-02-11T20:44:14.247Z,7.37
2018-02-11T20:46:41.756Z,8.40
2018-02-11T20:49:10.586Z,7.90
2018-02-11T20:51:38.106Z,6.93
2018-02-11T20:54:05.637Z,8.40
2018-02-11T20:56:33.164Z,7.85
2018-02-11T20:59:00.682Z,5.80
2018-02-11T21:01:28.188Z,17.85
2018-02-11T21:03:55.706Z,8.82
2018-02-11T21:06:23.988Z,9.60
2018-02-11T21:08:52.325Z,7.80
2018-02-11T21:11:19.859Z,8.63
2018-02-11T21:13:47.359Z,6.40
2018-02-11T21:16:14.892Z,8.85
2018-02-11T21:18:42.434Z,8.50
2018-02-11T21:21:09.963Z,7.45
2018-02-11T21:23:38.256Z,9.27
2018-02-11T21:26:05.766Z,6.95
2018-02-11T21:28:33.306Z,7.75
2018-02-11T21:31:00.820Z,9.88
2018-02-11T21:33:29.220Z,7.37
2018-02-11T21:35:56.764Z,7.40
2018-02-11T21:38:25.055Z,10.18
2018-02-11T21:40:52.573Z,7.95
2018-02-11T21:43:20.074Z,8.27
2018-02-11T21:45:47.621Z,7.60
2018-02-11T21:48:15.118Z,7.90
2018-02-11T21:50:42.607Z,8.43
2018-02-11T21:53:10.150Z,6.80
2018-02-11T21:55:37.695Z,9.20
2018-02-11T21:58:05.218Z,9.50
2018-02-11T22:00:32.729Z,8.40
2018-02-11T22:03:00.248Z,7.97
2018-02-11T22:05:27.798Z,9.88
2018-02-11T22:07:55.291Z,9.30
2018-02-11T22:10:22.897Z,6.90
2018-02-11T22:12:50.442Z,9.80
2018-02-11T22:15:17.965Z,9.02
2018-02-11T22:17:45.462Z,8.63
2018-02-11T22:20:12.985Z,8.75
2018-02-11T22:22:40.531Z,10.23
2018-02-11T22:25:08.055Z,9.35
2018-02-11T22:27:35.551Z,11.12
2018-02-11T22:30:03.108Z,9.90
2018-02-11T22:32:30.709Z,8.73
2018-02-11T22:34:58.242Z,10.15
2018-02-11T22:37:25.758Z,7.20
2018-02-11T22:39:53.281Z,10.32
2018-02-11T22:42:20.802Z,8.15
2018-02-11T22:44:48.321Z,9.00
2018-02-11T22:47:15.828Z,5.82
2018-02-11T22:49:43.393Z,8.95
2018-02-11T22:52:10.909Z,8.82
2018-02-11T22:54:38.424Z,9.13
2018-02-11T22:57:06.001Z,8.18
2018-02-11T22:59:33.517Z,6.10
2018-02-11T23:02:01.049Z,8.60
2018-02-11T23:04:29.311Z,8.57
2018-02-11T23:06:56.822Z,8.98
2018-02-11T23:09:24.315Z,9.88
2018-02-11T23:11:51.817Z,8.40
2018-02-11T23:14:19.438Z,8.95
2018-02-11T23:16:46.947Z,8.90
2018-02-11T23:19:14.526Z,8.57
2018-02-11T23:21:42.039Z,9.60
2018-02-11T23:24:09.547Z,8.48
2018-02-11T23:26:37.043Z,7.60
2018-02-11T23:29:04.566Z,8.90
2018-02-11T23:31:32.067Z,8.20
2018-02-11T23:33:59.570Z,9.35
2018-02-11T23:36:27.078Z,9.43
2018-02-11T23:38:54.568Z,6.87
2018-02-11T23:41:22.102Z,9.57
2018-02-11T23:43:49.602Z,6.90
2018-02-11T23:46:17.115Z,8.68
2018-02-11T23:48:44.615Z,8.48
2018-02-11T23:51:12.116Z,9.98
2018-02-11T23:53:39.633Z,8.77
2018-02-11T23:56:07.147Z,10.38
2018-02-11T23:58:34.636Z,11.10
